sensor_id;sensor_type;location;lat;lon;timestamp;pressure;altitude;pressure_sealevel;temperature;humidity
77216;BME280;66210;53.282;9.864;2023-04-24T00:01:13;99468.44;;;11.53;82.85
77216;BME280;66210;53.282;9.864;2023-04-24T00:03:41;99458.16;;;11.48;82.70
77216;BME280;66210;53.282;9.864;2023-04-24T00:06:08;99463.25;;;11.50;82.56
77216;BME280;66210;53.282;9.864;2023-04-24T00:08:35;99470.03;;;11.49;82.52
77216;BME280;66210;53.282;9.864;2023-04-24T00:11:02;99465.78;;;11.48;82.74
77216;BME280;66210;53.282;9.864;2023-04-24T00:13:29;99464.06;;;11.47;82.99
77216;BME280;66210;53.282;9.864;2023-04-24T00:15:56;99458.88;;;11.42;82.93
77216;BME280;66210;53.282;9.864;2023-04-24T00:18:23;99440.84;;;11.32;83.22
77216;BME280;66210;53.282;9.864;2023-04-24T00:20:49;99448.47;;;11.32;82.80
77216;BME280;66210;53.282;9.864;2023-04-24T00:23:16;99438.09;;;11.22;82.90
77216;BME280;66210;53.282;9.864;2023-04-24T00:25:43;99438.00;;;11.18;83.00
77216;BME280;66210;53.282;9.864;2023-04-24T00:28:09;99441.38;;;11.17;83.27
77216;BME280;66210;53.282;9.864;2023-04-24T00:30:36;99447.16;;;11.11;82.83
77216;BME280;66210;53.282;9.864;2023-04-24T00:33:03;99441.06;;;11.05;82.97
77216;BME280;66210;53.282;9.864;2023-04-24T00:35:29;99445.19;;;10.99;82.60
77216;BME280;66210;53.282;9.864;2023-04-24T00:37:56;99439.16;;;10.96;83.08
77216;BME280;66210;53.282;9.864;2023-04-24T00:40:23;99444.19;;;10.93;82.99
77216;BME280;66210;53.282;9.864;2023-04-24T00:42:49;99440.72;;;10.89;83.12
77216;BME280;66210;53.282;9.864;2023-04-24T00:45:16;99441.44;;;10.85;83.45
77216;BME280;66210;53.282;9.864;2023-04-24T00:47:43;99441.41;;;10.82;83.71
77216;BME280;66210;53.282;9.864;2023-04-24T00:50:11;99437.78;;;10.74;83.43
77216;BME280;66210;53.282;9.864;2023-04-24T00:52:41;99433.59;;;10.74;83.66
77216;BME280;66210;53.282;9.864;2023-04-24T00:55:08;99440.22;;;10.69;83.81
77216;BME280;66210;53.282;9.864;2023-04-24T00:57:35;99438.47;;;10.67;83.77
77216;BME280;66210;53.282;9.864;2023-04-24T01:00:03;99440.06;;;10.61;84.09
77216;BME280;66210;53.282;9.864;2023-04-24T01:02:31;99427.31;;;10.60;84.23
77216;BME280;66210;53.282;9.864;2023-04-24T01:05:01;99437.50;;;10.61;84.41
77216;BME280;66210;53.282;9.864;2023-04-24T01:07:28;99437.47;;;10.60;84.56
77216;BME280;66210;53.282;9.864;2023-04-24T01:09:55;99437.34;;;10.55;84.46
77216;BME280;66210;53.282;9.864;2023-04-24T01:12:22;99433.13;;;10.56;84.98
77216;BME280;66210;53.282;9.864;2023-04-24T01:14:49;99435.66;;;10.56;85.04
77216;BME280;66210;53.282;9.864;2023-04-24T01:17:15;99422.97;;;10.56;84.55
77216;BME280;66210;53.282;9.864;2023-04-24T01:19:42;99428.13;;;10.59;84.58
77216;BME280;66210;53.282;9.864;2023-04-24T01:22:13;99427.31;;;10.60;84.69
77216;BME280;66210;53.282;9.864;2023-04-24T01:24:41;99431.59;;;10.63;84.66
77216;BME280;66210;53.282;9.864;2023-04-24T01:27:10;99432.47;;;10.63;84.33
77216;BME280;66210;53.282;9.864;2023-04-24T01:29:37;99423.00;;;10.57;84.78
77216;BME280;66210;53.282;9.864;2023-04-24T01:32:04;99433.13;;;10.56;84.19
77216;BME280;66210;53.282;9.864;2023-04-24T01:34:32;99429.63;;;10.51;84.87
77216;BME280;66210;53.282;9.864;2023-04-24T01:36:59;99428.66;;;10.46;84.68
77216;BME280;66210;53.282;9.864;2023-04-24T01:39:26;99435.25;;;10.39;84.73
77216;BME280;66210;53.282;9.864;2023-04-24T01:41:55;99440.16;;;10.31;84.72
77216;BME280;66210;53.282;9.864;2023-04-24T01:44:22;99440.03;;;10.28;84.09
77216;BME280;66210;53.282;9.864;2023-04-24T01:46:49;99427.13;;;10.20;84.32
77216;BME280;66210;53.282;9.864;2023-04-24T01:49:17;99428.66;;;10.14;84.66
77216;BME280;66210;53.282;9.864;2023-04-24T01:51:43;99414.03;;;10.05;84.78
77216;BME280;66210;53.282;9.864;2023-04-24T01:54:11;99411.41;;;10.02;84.12
77216;BME280;66210;53.282;9.864;2023-04-24T01:56:40;99412.06;;;9.95;84.38
77216;BME280;66210;53.282;9.864;2023-04-24T01:59:10;99399.19;;;9.87;84.37
77216;BME280;66210;53.282;9.864;2023-04-24T02:01:38;99408.50;;;9.88;84.04
77216;BME280;66210;53.282;9.864;2023-04-24T02:04:06;99407.59;;;9.86;84.31
77216;BME280;66210;53.282;9.864;2023-04-24T02:06:34;99397.44;;;9.85;84.37
77216;BME280;66210;53.282;9.864;2023-04-24T02:09:01;99397.31;;;9.82;84.97
77216;BME280;66210;53.282;9.864;2023-04-24T02:11:27;99402.38;;;9.80;84.25
77216;BME280;66210;53.282;9.864;2023-04-24T02:13:54;99404.72;;;9.74;84.88
77216;BME280;66210;53.282;9.864;2023-04-24T02:16:21;99402.03;;;9.68;85.17
77216;BME280;66210;53.282;9.864;2023-04-24T02:18:47;99403.63;;;9.64;84.95
77216;BME280;66210;53.282;9.864;2023-04-24T02:21:14;99410.28;;;9.61;84.50
77216;BME280;66210;53.282;9.864;2023-04-24T02:23:41;99406.75;;;9.55;84.37
77216;BME280;66210;53.282;9.864;2023-04-24T02:26:07;99412.63;;;9.54;84.55
77216;BME280;66210;53.282;9.864;2023-04-24T02:28:34;99416.78;;;9.52;84.96
77216;BME280;66210;53.282;9.864;2023-04-24T02:31:01;99407.31;;;9.45;84.80
77216;BME280;66210;53.282;9.864;2023-04-24T02:33:28;99406.38;;;9.42;84.80
77216;BME280;66210;53.282;9.864;2023-04-24T02:35:55;99404.63;;;9.41;84.81
77216;BME280;66210;53.282;9.864;2023-04-24T02:38:22;99403.59;;;9.34;85.28
77216;BME280;66210;53.282;9.864;2023-04-24T02:40:49;99406.97;;;9.33;85.18
77216;BME280;66210;53.282;9.864;2023-04-24T02:43:15;99404.19;;;9.25;84.74
77216;BME280;66210;53.282;9.864;2023-04-24T02:45:42;99414.38;;;9.27;85.02
77216;BME280;66210;53.282;9.864;2023-04-24T02:48:09;99407.56;;;9.26;85.39
77216;BME280;66210;53.282;9.864;2023-04-24T02:50:35;99391.19;;;9.14;85.23
77216;BME280;66210;53.282;9.864;2023-04-24T02:53:02;99401.44;;;9.19;85.57
77216;BME280;66210;53.282;9.864;2023-04-24T02:55:29;99405.59;;;9.15;85.76
77216;BME280;66210;53.282;9.864;2023-04-24T02:57:56;99396.13;;;9.10;85.54
77216;BME280;66210;53.282;9.864;2023-04-24T03:00:23;99398.56;;;9.07;85.50
77216;BME280;66210;53.282;9.864;2023-04-24T03:02:50;99394.28;;;9.04;85.69
77216;BME280;66210;53.282;9.864;2023-04-24T03:05:17;99396.66;;;9.00;85.26
77216;BME280;66210;53.282;9.864;2023-04-24T03:07:44;99390.75;;;8.99;85.35
77216;BME280;66210;53.282;9.864;2023-04-24T03:10:12;99392.38;;;8.97;85.64
77216;BME280;66210;53.282;9.864;2023-04-24T03:12:38;99391.47;;;8.95;85.25
77216;BME280;66210;53.282;9.864;2023-04-24T03:15:05;99393.84;;;8.90;85.81
77216;BME280;66210;53.282;9.864;2023-04-24T03:17:32;99388.66;;;8.86;85.54
77216;BME280;66210;53.282;9.864;2023-04-24T03:19:59;99391.97;;;8.85;85.90
77216;BME280;66210;53.282;9.864;2023-04-24T03:22:26;99399.50;;;8.82;85.54
77216;BME280;66210;53.282;9.864;2023-04-24T03:24:52;99396.81;;;8.77;85.81
77216;BME280;66210;53.282;9.864;2023-04-24T03:27:21;99375.38;;;8.67;85.60
77216;BME280;66210;53.282;9.864;2023-04-24T03:29:47;99393.31;;;8.73;85.97
77216;BME280;66210;53.282;9.864;2023-04-24T03:32:14;99390.00;;;8.76;84.83
77216;BME280;66210;53.282;9.864;2023-04-24T03:34:41;99388.31;;;8.75;85.49
77216;BME280;66210;53.282;9.864;2023-04-24T03:37:08;99389.88;;;8.71;85.38
77216;BME280;66210;53.282;9.864;2023-04-24T03:39:34;99384.66;;;8.67;84.64
77216;BME280;66210;53.282;9.864;2023-04-24T03:42:01;99387.06;;;8.62;85.18
77216;BME280;66210;53.282;9.864;2023-04-24T03:44:28;99386.13;;;8.60;84.99
77216;BME280;66210;53.282;9.864;2023-04-24T03:46:55;99387.66;;;8.55;85.44
77216;BME280;66210;53.282;9.864;2023-04-24T03:49:21;99390.16;;;8.53;85.27
77216;BME280;66210;53.282;9.864;2023-04-24T03:51:48;99387.41;;;8.47;85.60
77216;BME280;66210;53.282;9.864;2023-04-24T03:54:15;99386.47;;;8.44;85.29
77216;BME280;66210;53.282;9.864;2023-04-24T03:56:42;99386.28;;;8.39;85.33
77216;BME280;66210;53.282;9.864;2023-04-24T03:59:09;99393.75;;;8.36;86.01
77216;BME280;66210;53.282;9.864;2023-04-24T04:01:36;99396.13;;;8.31;85.30
77216;BME280;66210;53.282;9.864;2023-04-24T04:04:04;99385.88;;;8.27;85.73
77216;BME280;66210;53.282;9.864;2023-04-24T04:06:31;99383.19;;;8.22;84.90
77216;BME280;66210;53.282;9.864;2023-04-24T04:08:58;99394.91;;;8.20;85.16
77216;BME280;66210;53.282;9.864;2023-04-24T04:11:26;99395.69;;;8.18;85.07
77216;BME280;66210;53.282;9.864;2023-04-24T04:13:52;99392.22;;;8.16;85.09
77216;BME280;66210;53.282;9.864;2023-04-24T04:16:19;99391.31;;;8.13;85.25
77216;BME280;66210;53.282;9.864;2023-04-24T04:18:46;99391.22;;;8.10;85.55
77216;BME280;66210;53.282;9.864;2023-04-24T04:21:12;99391.88;;;8.05;85.34
77216;BME280;66210;53.282;9.864;2023-04-24T04:23:39;99396.06;;;8.04;84.92
77216;BME280;66210;53.282;9.864;2023-04-24T04:26:06;99407.00;;;8.03;85.23
77216;BME280;66210;53.282;9.864;2023-04-24T04:28:35;99404.34;;;8.00;84.95
77216;BME280;66210;53.282;9.864;2023-04-24T04:31:01;99409.41;;;8.00;84.67
77216;BME280;66210;53.282;9.864;2023-04-24T04:33:28;99396.56;;;7.94;84.79
77216;BME280;66210;53.282;9.864;2023-04-24T04:35:55;99404.19;;;7.96;84.51
77216;BME280;66210;53.282;9.864;2023-04-24T04:38:25;99398.97;;;7.91;84.63
77216;BME280;66210;53.282;9.864;2023-04-24T04:40:56;99400.75;;;7.94;85.22
77216;BME280;66210;53.282;9.864;2023-04-24T04:43:24;99401.81;;;8.00;84.75
77216;BME280;66210;53.282;9.864;2023-04-24T04:45:52;99391.84;;;8.03;85.10
77216;BME280;66210;53.282;9.864;2023-04-24T04:48:18;99394.56;;;8.09;85.07
77216;BME280;66210;53.282;9.864;2023-04-24T04:50:45;99380.94;;;8.06;85.00
77216;BME280;66210;53.282;9.864;2023-04-24T04:53:12;99388.75;;;8.12;84.98
77216;BME280;66210;53.282;9.864;2023-04-24T04:55:39;99396.28;;;8.10;85.09
77216;BME280;66210;53.282;9.864;2023-04-24T04:58:06;99393.81;;;8.12;84.83
77216;BME280;66210;53.282;9.864;2023-04-24T05:00:32;99394.66;;;8.12;85.17
77216;BME280;66210;53.282;9.864;2023-04-24T05:03:02;99397.34;;;8.17;85.01
77216;BME280;66210;53.282;9.864;2023-04-24T05:05:46;99404.25;;;8.21;85.28
77216;BME280;66210;53.282;9.864;2023-04-24T05:08:13;99394.16;;;8.23;85.45
77216;BME280;66210;53.282;9.864;2023-04-24T05:10:53;99394.44;;;8.30;85.37
77216;BME280;66210;53.282;9.864;2023-04-24T05:13:20;99403.34;;;8.43;85.96
77216;BME280;66210;53.282;9.864;2023-04-24T05:16:01;99391.81;;;8.53;85.07
77216;BME280;66210;53.282;9.864;2023-04-24T05:18:28;99394.84;;;8.68;84.25
77216;BME280;66210;53.282;9.864;2023-04-24T05:20:54;99392.81;;;8.84;84.82
77216;BME280;66210;53.282;9.864;2023-04-24T05:23:22;99380.63;;;8.99;84.11
77216;BME280;66210;53.282;9.864;2023-04-24T05:25:48;99387.13;;;9.20;83.34
77216;BME280;66210;53.282;9.864;2023-04-24T05:28:15;99378.31;;;9.35;82.77
77216;BME280;66210;53.282;9.864;2023-04-24T05:30:42;99380.41;;;9.50;82.64
77216;BME280;66210;53.282;9.864;2023-04-24T05:33:08;99382.59;;;9.68;81.58
77216;BME280;66210;53.282;9.864;2023-04-24T05:35:36;99384.75;;;9.85;80.79
77216;BME280;66210;53.282;9.864;2023-04-24T05:38:03;99392.06;;;10.06;80.82
77216;BME280;66210;53.282;9.864;2023-04-24T05:40:29;99401.78;;;10.22;80.75
77216;BME280;66210;53.282;9.864;2023-04-24T05:42:56;99394.53;;;10.34;77.21
77216;BME280;66210;53.282;9.864;2023-04-24T05:45:23;99396.34;;;10.40;76.51
77216;BME280;66210;53.282;9.864;2023-04-24T05:47:49;99403.53;;;10.56;77.21
77216;BME280;66210;53.282;9.864;2023-04-24T05:50:18;99400.25;;;10.62;76.32
77216;BME280;66210;53.282;9.864;2023-04-24T05:52:45;99401.47;;;10.76;77.26
77216;BME280;66210;53.282;9.864;2023-04-24T05:55:12;99399.03;;;10.81;76.39
77216;BME280;66210;53.282;9.864;2023-04-24T05:57:39;99396.66;;;10.89;76.57
77216;BME280;66210;53.282;9.864;2023-04-24T06:00:07;99395.84;;;10.90;74.75
77216;BME280;66210;53.282;9.864;2023-04-24T06:02:34;99389.34;;;11.02;75.44
77216;BME280;66210;53.282;9.864;2023-04-24T06:05:02;99382.69;;;11.08;73.86
77216;BME280;66210;53.282;9.864;2023-04-24T06:07:28;99392.19;;;11.16;73.53
77216;BME280;66210;53.282;9.864;2023-04-24T06:09:55;99391.28;;;11.13;73.16
77216;BME280;66210;53.282;9.864;2023-04-24T06:12:23;99402.25;;;11.12;71.06
77216;BME280;66210;53.282;9.864;2023-04-24T06:14:49;99408.34;;;11.18;72.95
77216;BME280;66210;53.282;9.864;2023-04-24T06:17:16;99396.50;;;11.20;73.82
77216;BME280;66210;53.282;9.864;2023-04-24T06:19:43;99406.97;;;11.33;73.27
77216;BME280;66210;53.282;9.864;2023-04-24T06:22:10;99404.47;;;11.36;71.64
77216;BME280;66210;53.282;9.864;2023-04-24T06:24:37;99413.91;;;11.40;71.15
77216;BME280;66210;53.282;9.864;2023-04-24T06:27:03;99413.31;;;11.53;72.17
77216;BME280;66210;53.282;9.864;2023-04-24T06:29:30;99411.72;;;11.58;71.40
77216;BME280;66210;53.282;9.864;2023-04-24T06:31:57;99419.44;;;11.61;70.34
77216;BME280;66210;53.282;9.864;2023-04-24T06:34:24;99411.72;;;11.58;70.11
77216;BME280;66210;53.282;9.864;2023-04-24T06:36:50;99421.16;;;11.62;70.83
77216;BME280;66210;53.282;9.864;2023-04-24T06:39:17;99426.19;;;11.59;69.19
77216;BME280;66210;53.282;9.864;2023-04-24T06:41:44;99412.47;;;11.53;69.97
77216;BME280;66210;53.282;9.864;2023-04-24T06:44:11;99418.50;;;11.58;70.19
77216;BME280;66210;53.282;9.864;2023-04-24T06:46:37;99426.47;;;11.75;70.45
77216;BME280;66210;53.282;9.864;2023-04-24T06:49:07;99415.78;;;11.90;70.07
77216;BME280;66210;53.282;9.864;2023-04-24T06:51:33;99420.31;;;12.06;69.71
77216;BME280;66210;53.282;9.864;2023-04-24T06:54:00;99419.63;;;12.13;68.14
77216;BME280;66210;53.282;9.864;2023-04-24T06:56:27;99416.19;;;12.13;67.34
77216;BME280;66210;53.282;9.864;2023-04-24T06:58:56;99433.28;;;12.18;66.87
77216;BME280;66210;53.282;9.864;2023-04-24T07:01:22;99415.41;;;12.15;66.77
77216;BME280;66210;53.282;9.864;2023-04-24T07:03:49;99426.81;;;12.37;66.37
77216;BME280;66210;53.282;9.864;2023-04-24T07:06:16;99423.53;;;12.43;66.40
77216;BME280;66210;53.282;9.864;2023-04-24T07:08:45;99427.94;;;12.52;66.71
77216;BME280;66210;53.282;9.864;2023-04-24T07:11:11;99422.78;;;12.48;66.28
77216;BME280;66210;53.282;9.864;2023-04-24T07:13:38;99430.41;;;12.48;65.85
77216;BME280;66210;53.282;9.864;2023-04-24T07:16:08;99428.69;;;12.46;66.53
77216;BME280;66210;53.282;9.864;2023-04-24T07:18:35;99432.00;;;12.40;65.55
77216;BME280;66210;53.282;9.864;2023-04-24T07:21:03;99430.34;;;12.42;66.71
77216;BME280;66210;53.282;9.864;2023-04-24T07:23:29;99437.00;;;12.37;66.43
77216;BME280;66210;53.282;9.864;2023-04-24T07:25:57;99439.41;;;12.28;65.22
77216;BME280;66210;53.282;9.864;2023-04-24T07:28:24;99433.41;;;12.26;65.95
77216;BME280;66210;53.282;9.864;2023-04-24T07:30:51;99443.59;;;12.26;66.89
77216;BME280;66210;53.282;9.864;2023-04-24T07:33:20;99450.44;;;12.27;66.06
77216;BME280;66210;53.282;9.864;2023-04-24T07:35:47;99452.34;;;12.39;66.37
77216;BME280;66210;53.282;9.864;2023-04-24T07:38:14;99450.72;;;12.44;66.07
77216;BME280;66210;53.282;9.864;2023-04-24T07:40:40;99457.38;;;12.36;65.77
77216;BME280;66210;53.282;9.864;2023-04-24T07:43:07;99466.72;;;12.37;66.40
77216;BME280;66210;53.282;9.864;2023-04-24T07:45:34;99479.47;;;12.37;66.67
77216;BME280;66210;53.282;9.864;2023-04-24T07:48:04;99470.69;;;12.21;66.46
77216;BME280;66210;53.282;9.864;2023-04-24T07:50:31;99474.78;;;12.14;66.34
77216;BME280;66210;53.282;9.864;2023-04-24T07:52:57;99475.66;;;12.15;66.69
77216;BME280;66210;53.282;9.864;2023-04-24T07:55:24;99473.00;;;12.09;66.50
77216;BME280;66210;53.282;9.864;2023-04-24T07:57:53;99478.91;;;12.07;66.95
77216;BME280;66210;53.282;9.864;2023-04-24T08:00:20;99481.41;;;12.06;66.58
77216;BME280;66210;53.282;9.864;2023-04-24T08:02:47;99478.59;;;11.91;66.23
77216;BME280;66210;53.282;9.864;2023-04-24T08:05:14;99488.69;;;11.88;66.91
77216;BME280;66210;53.282;9.864;2023-04-24T08:07:41;99490.25;;;11.82;67.83
77216;BME280;66210;53.282;9.864;2023-04-24T08:10:10;99491.06;;;11.80;67.27
77216;BME280;66210;53.282;9.864;2023-04-24T08:12:37;99493.63;;;11.81;67.75
77216;BME280;66210;53.282;9.864;2023-04-24T08:15:05;99491.16;;;11.84;67.85
77216;BME280;66210;53.282;9.864;2023-04-24T08:17:32;99497.94;;;11.84;68.03
77216;BME280;66210;53.282;9.864;2023-04-24T08:19:58;99493.75;;;11.86;67.90
77216;BME280;66210;53.282;9.864;2023-04-24T08:22:28;99496.28;;;11.86;68.00
77216;BME280;66210;53.282;9.864;2023-04-24T08:24:54;99503.38;;;12.01;67.72
77216;BME280;66210;53.282;9.864;2023-04-24T08:27:23;99505.25;;;12.10;67.29
77216;BME280;66210;53.282;9.864;2023-04-24T08:29:50;99503.75;;;12.18;66.64
77216;BME280;66210;53.282;9.864;2023-04-24T08:32:16;99495.34;;;12.22;66.42
77216;BME280;66210;53.282;9.864;2023-04-24T08:34:43;99492.59;;;12.60;66.18
77216;BME280;66210;53.282;9.864;2023-04-24T08:37:09;99494.28;;;13.08;64.55
77216;BME280;66210;53.282;9.864;2023-04-24T08:39:36;99493.66;;;13.23;63.19
77216;BME280;66210;53.282;9.864;2023-04-24T08:42:05;99500.34;;;13.16;63.30
77216;BME280;66210;53.282;9.864;2023-04-24T08:44:35;99492.50;;;13.04;64.24
77216;BME280;66210;53.282;9.864;2023-04-24T08:47:02;99504.22;;;12.93;63.25
77216;BME280;66210;53.282;9.864;2023-04-24T08:49:29;99514.69;;;12.59;62.82
77216;BME280;66210;53.282;9.864;2023-04-24T08:51:56;99515.28;;;12.44;64.78
77216;BME280;66210;53.282;9.864;2023-04-24T08:54:23;99509.94;;;12.32;65.03
77216;BME280;66210;53.282;9.864;2023-04-24T08:56:50;99518.38;;;12.30;64.93
77216;BME280;66210;53.282;9.864;2023-04-24T08:59:17;99512.41;;;12.27;64.89
77216;BME280;66210;53.282;9.864;2023-04-24T09:01:45;99507.16;;;12.20;65.05
77216;BME280;66210;53.282;9.864;2023-04-24T09:04:14;99518.34;;;12.28;65.24
77216;BME280;66210;53.282;9.864;2023-04-24T09:06:42;99506.66;;;12.38;65.09
77216;BME280;66210;53.282;9.864;2023-04-24T09:09:10;99509.31;;;12.44;63.85
77216;BME280;66210;53.282;9.864;2023-04-24T09:11:37;99506.84;;;12.47;64.20
77216;BME280;66210;53.282;9.864;2023-04-24T09:14:04;99501.81;;;12.53;64.39
77216;BME280;66210;53.282;9.864;2023-04-24T09:16:31;99507.03;;;12.59;64.48
77216;BME280;66210;53.282;9.864;2023-04-24T09:19:01;99499.44;;;12.61;63.41
77216;BME280;66210;53.282;9.864;2023-04-24T09:21:33;99510.44;;;12.60;63.63
77216;BME280;66210;53.282;9.864;2023-04-24T09:24:05;99511.97;;;12.50;64.03
77216;BME280;66210;53.282;9.864;2023-04-24T09:26:36;99519.53;;;12.45;64.85
77216;BME280;66210;53.282;9.864;2023-04-24T09:29:03;99511.81;;;12.41;64.65
77216;BME280;66210;53.282;9.864;2023-04-24T09:31:31;99510.91;;;12.39;64.39
77216;BME280;66210;53.282;9.864;2023-04-24T09:34:03;99510.97;;;12.40;64.79
77216;BME280;66210;53.282;9.864;2023-04-24T09:36:35;99516.09;;;12.43;64.97
77216;BME280;66210;53.282;9.864;2023-04-24T09:39:06;99512.81;;;12.49;64.21
77216;BME280;66210;53.282;9.864;2023-04-24T09:41:35;99521.31;;;12.50;65.04
77216;BME280;66210;53.282;9.864;2023-04-24T09:44:19;99514.56;;;12.52;64.59
77216;BME280;66210;53.282;9.864;2023-04-24T09:46:54;99512.19;;;12.61;64.99
77216;BME280;66210;53.282;9.864;2023-04-24T09:49:29;99519.97;;;12.70;64.68
77216;BME280;66210;53.282;9.864;2023-04-24T09:52:10;99517.47;;;12.72;64.46
77216;BME280;66210;53.282;9.864;2023-04-24T09:54:38;99516.63;;;12.73;64.06
77216;BME280;66210;53.282;9.864;2023-04-24T09:57:07;99517.19;;;12.56;63.34
77216;BME280;66210;53.282;9.864;2023-04-24T09:59:34;99520.38;;;12.46;63.78
77216;BME280;66210;53.282;9.864;2023-04-24T10:02:03;99526.25;;;12.42;64.79
77216;BME280;66210;53.282;9.864;2023-04-24T10:04:54;99529.59;;;12.39;64.24
77216;BME280;66210;53.282;9.864;2023-04-24T10:07:25;99527.09;;;12.41;63.82
77216;BME280;66210;53.282;9.864;2023-04-24T10:09:52;99529.72;;;12.45;64.12
77216;BME280;66210;53.282;9.864;2023-04-24T10:12:19;99525.53;;;12.47;63.59
77216;BME280;66210;53.282;9.864;2023-04-24T10:14:48;99531.38;;;12.43;63.38
77216;BME280;66210;53.282;9.864;2023-04-24T10:17:15;99528.06;;;12.47;63.93
77216;BME280;66210;53.282;9.864;2023-04-24T10:19:42;99517.97;;;12.52;64.02
77216;BME280;66210;53.282;9.864;2023-04-24T10:22:10;99527.44;;;12.59;63.42
77216;BME280;66210;53.282;9.864;2023-04-24T10:24:38;99523.91;;;12.53;63.67
77216;BME280;66210;53.282;9.864;2023-04-24T10:27:05;99525.47;;;12.46;63.77
77216;BME280;66210;53.282;9.864;2023-04-24T10:29:33;99528.88;;;12.46;63.43
77216;BME280;66210;53.282;9.864;2023-04-24T10:32:02;99525.47;;;12.44;63.52
77216;BME280;66210;53.282;9.864;2023-04-24T10:34:28;99535.00;;;12.55;62.59
77216;BME280;66210;53.282;9.864;2023-04-24T10:36:56;99519.28;;;12.79;62.60
77216;BME280;66210;53.282;9.864;2023-04-24T10:39:24;99527.38;;;13.06;61.38
77216;BME280;66210;53.282;9.864;2023-04-24T10:41:53;99522.69;;;13.28;60.77
77216;BME280;66210;53.282;9.864;2023-04-24T10:44:22;99517.75;;;13.40;60.19
77216;BME280;66210;53.282;9.864;2023-04-24T10:46:53;99521.31;;;13.51;60.38
77216;BME280;66210;53.282;9.864;2023-04-24T10:49:28;99523.13;;;13.59;59.53
77216;BME280;66210;53.282;9.864;2023-04-24T10:52:02;99529.00;;;13.53;59.57
77216;BME280;66210;53.282;9.864;2023-04-24T10:54:34;99524.50;;;13.38;59.37
77216;BME280;66210;53.282;9.864;2023-04-24T10:59:47;99528.41;;;13.16;59.76
77216;BME280;66210;53.282;9.864;2023-04-24T11:02:15;99527.31;;;13.02;60.33
77216;BME280;66210;53.282;9.864;2023-04-24T11:04:42;99533.19;;;12.98;61.10
77216;BME280;66210;53.282;9.864;2023-04-24T11:07:12;99534.00;;;12.95;60.44
77216;BME280;66210;53.282;9.864;2023-04-24T11:09:41;99539.88;;;12.91;61.04
77216;BME280;66210;53.282;9.864;2023-04-24T11:12:10;99537.09;;;12.76;60.31
77216;BME280;66210;53.282;9.864;2023-04-24T11:17:37;99539.53;;;12.69;60.80
77216;BME280;66210;53.282;9.864;2023-04-24T11:20:07;99542.09;;;12.73;61.34
77216;BME280;66210;53.282;9.864;2023-04-24T11:22:54;99543.59;;;12.61;61.16
77216;BME280;66210;53.282;9.864;2023-04-24T11:25:22;99536.81;;;12.62;60.54
77216;BME280;66210;53.282;9.864;2023-04-24T11:27:49;99535.22;;;12.67;61.39
77216;BME280;66210;53.282;9.864;2023-04-24T11:30:19;99536.19;;;12.74;60.30
77216;BME280;66210;53.282;9.864;2023-04-24T11:32:50;99540.75;;;12.92;60.84
77216;BME280;66210;53.282;9.864;2023-04-24T11:35:22;99529.94;;;13.06;60.63
77216;BME280;66210;53.282;9.864;2023-04-24T11:37:54;99523.31;;;13.18;60.62
77216;BME280;66210;53.282;9.864;2023-04-24T11:40:38;99530.81;;;13.08;58.43
77216;BME280;66210;53.282;9.864;2023-04-24T11:43:06;99523.19;;;13.08;58.60
77216;BME280;66210;53.282;9.864;2023-04-24T11:45:34;99530.78;;;13.05;58.99
77216;BME280;66210;53.282;9.864;2023-04-24T11:48:02;99525.88;;;13.18;59.57
77216;BME280;66210;53.282;9.864;2023-04-24T11:50:30;99524.31;;;13.26;59.28
77216;BME280;66210;53.282;9.864;2023-04-24T11:52:57;99522.53;;;13.22;59.85
77216;BME280;66210;53.282;9.864;2023-04-24T11:55:25;99534.94;;;13.00;58.60
77216;BME280;66210;53.282;9.864;2023-04-24T11:57:55;99526.16;;;12.83;59.86
77216;BME280;66210;53.282;9.864;2023-04-24T12:00:25;99537.94;;;12.76;60.04
77216;BME280;66210;53.282;9.864;2023-04-24T12:03:03;99540.41;;;12.72;59.98
77216;BME280;66210;53.282;9.864;2023-04-24T12:05:31;99531.03;;;12.71;60.28
77216;BME280;66210;53.282;9.864;2023-04-24T12:07:58;99541.34;;;12.77;60.09
77216;BME280;66210;53.282;9.864;2023-04-24T12:10:27;99542.06;;;12.71;59.21
77216;BME280;66210;53.282;9.864;2023-04-24T12:12:56;99542.91;;;12.70;60.27
77216;BME280;66210;53.282;9.864;2023-04-24T12:15:23;99552.22;;;12.68;60.73
77216;BME280;66210;53.282;9.864;2023-04-24T12:17:51;99541.91;;;12.62;60.75
77216;BME280;66210;53.282;9.864;2023-04-24T12:20:30;99558.59;;;12.44;60.72
77216;BME280;66210;53.282;9.864;2023-04-24T12:22:58;99552.47;;;12.36;61.39
77216;BME280;66210;53.282;9.864;2023-04-24T12:25:27;99547.16;;;12.25;61.42
77216;BME280;66210;53.282;9.864;2023-04-24T12:27:55;99551.38;;;12.23;61.91
77216;BME280;66210;53.282;9.864;2023-04-24T12:30:26;99540.25;;;12.18;61.51
77216;BME280;66210;53.282;9.864;2023-04-24T12:32:57;99553.25;;;12.32;61.36
77216;BME280;66210;53.282;9.864;2023-04-24T12:35:27;99547.28;;;12.32;62.23
77216;BME280;66210;53.282;9.864;2023-04-24T12:37:54;99554.00;;;12.26;61.58
77216;BME280;66210;53.282;9.864;2023-04-24T12:40:22;99553.78;;;12.16;61.55
77216;BME280;66210;53.282;9.864;2023-04-24T12:42:52;99556.22;;;12.13;62.20
77216;BME280;66210;53.282;9.864;2023-04-24T12:45:19;99552.69;;;12.06;62.16
77216;BME280;66210;53.282;9.864;2023-04-24T12:47:48;99546.63;;;11.98;62.50
77216;BME280;66210;53.282;9.864;2023-04-24T12:50:15;99553.44;;;12.00;62.67
77216;BME280;66210;53.282;9.864;2023-04-24T12:52:43;99556.94;;;12.05;62.62
77216;BME280;66210;53.282;9.864;2023-04-24T12:55:10;99558.69;;;12.06;62.80
77216;BME280;66210;53.282;9.864;2023-04-24T12:57:39;99554.56;;;12.13;62.64
77216;BME280;66210;53.282;9.864;2023-04-24T13:00:07;99553.00;;;12.20;62.52
77216;BME280;66210;53.282;9.864;2023-04-24T13:02:34;99554.75;;;12.24;62.46
77216;BME280;66210;53.282;9.864;2023-04-24T13:05:02;99558.28;;;12.29;62.56
77216;BME280;66210;53.282;9.864;2023-04-24T13:07:29;99554.84;;;12.28;62.26
77216;BME280;66210;53.282;9.864;2023-04-24T13:09:56;99559.81;;;12.21;63.04
77216;BME280;66210;53.282;9.864;2023-04-24T13:12:24;99550.28;;;12.12;63.52